Time;durP1;ratioP1;P1;durP2;ratioP2;P2;SDS_P1;SDS_P2;PMS_P1;PMS_P2;Temp;Humidity;BMP_temperature;BMP_pressure;BME280_temperature;BME280_humidity;BME280_pressure;Samples;Min_cycle;Max_cycle;Signal;HPM_P1;HPM_P2
2023/04/06 00:02:03;;;;;;;3.17;2.83;;;;;;;4.84;58.86;101989.75;6141221;28;20684;-73
2023/04/06 00:05:24;;;;;;;5.83;3.17;;;;;;;4.74;59.71;101987.75;6140100;28;20238;-73
2023/04/06 00:08:45;;;;;;;5.60;3.67;;;;;;;4.73;59.44;101983.47;6131567;28;20239;-73
2023/04/06 00:12:07;;;;;;;3.80;3.10;;;;;;;4.77;59.74;101990.16;6124533;28;20234;-74
2023/04/06 00:15:28;;;;;;;5.30;3.53;;;;;;;4.82;58.85;101984.63;6125835;28;20227;-73
2023/04/06 00:18:51;;;;;;;2.80;2.60;;;;;;;4.68;59.50;101979.47;6137012;28;20257;-73
2023/04/06 00:22:12;;;;;;;4.10;3.40;;;;;;;4.61;60.15;101972.97;6147583;28;20558;-73
2023/04/06 00:25:33;;;;;;;3.93;2.60;;;;;;;4.60;60.51;101979.16;6120840;28;20238;-73
2023/04/06 00:28:54;;;;;;;3.27;3.07;;;;;;;4.53;60.00;101970.88;6141058;28;20223;-74
2023/04/06 00:32:15;;;;;;;3.07;2.77;;;;;;;4.51;60.18;101966.69;6129987;28;20231;-73
2023/04/06 00:35:38;;;;;;;3.03;2.87;;;;;;;4.44;60.05;101969.72;6140206;28;20234;-73
2023/04/06 00:38:59;;;;;;;3.37;3.07;;;;;;;4.42;59.84;101963.75;6137464;28;20330;-72
2023/04/06 00:42:25;;;;;;;3.13;2.83;;;;;;;4.46;60.15;101965.22;6137653;28;20226;-74
2023/04/06 00:45:46;;;;;;;6.00;2.97;;;;;;;4.53;59.60;101960.41;6110341;28;20258;-73
2023/04/06 00:49:07;;;;;;;5.43;3.20;;;;;;;4.45;61.13;101954.88;6134054;28;20502;-73
2023/04/06 00:52:30;;;;;;;3.43;2.97;;;;;;;4.45;60.65;101952.25;6140746;28;20764;-73
2023/04/06 00:55:51;;;;;;;16.73;3.80;;;;;;;4.38;60.12;101954.44;6125989;28;20230;-73
2023/04/06 00:59:12;;;;;;;3.50;3.20;;;;;;;4.31;61.08;101952.31;6115979;28;20244;-73
2023/04/06 01:02:35;;;;;;;4.13;3.10;;;;;;;4.29;60.49;101946.38;6136367;28;20619;-73
2023/04/06 01:05:58;;;;;;;3.93;2.97;;;;;;;4.23;61.37;101945.00;6136392;28;20270;-73
2023/04/06 01:09:26;;;;;;;4.70;3.40;;;;;;;4.27;61.39;101937.78;6125675;28;20242;-74
2023/04/06 01:12:47;;;;;;;2.93;2.70;;;;;;;4.24;61.63;101940.59;6133447;28;20246;-74
2023/04/06 01:16:16;;;;;;;3.77;2.53;;;;;;;4.12;61.69;101937.84;6112552;28;20604;-73
2023/04/06 01:19:45;;;;;;;3.37;2.30;;;;;;;4.11;61.95;101935.31;6112409;28;20532;-73
2023/04/06 01:23:14;;;;;;;5.03;3.17;;;;;;;4.09;61.94;101930.19;6131974;28;20229;-73
2023/04/06 01:26:40;;;;;;;4.40;2.33;;;;;;;4.01;62.31;101924.66;6130468;28;20234;-74
2023/04/06 01:30:04;;;;;;;3.77;2.77;;;;;;;4.00;63.22;101922.97;6122229;28;20242;-73
2023/04/06 01:33:37;;;;;;;3.03;2.60;;;;;;;3.94;63.31;101928.59;6124534;28;20510;-74
2023/04/06 01:37:02;;;;;;;3.80;3.57;;;;;;;3.94;63.12;101932.97;6150248;28;20230;-73
2023/04/06 01:40:26;;;;;;;3.90;3.60;;;;;;;3.93;62.98;101926.06;6116044;28;20234;-73
2023/04/06 01:43:48;;;;;;;3.50;3.00;;;;;;;3.96;63.64;101931.09;6126516;28;20238;-73
2023/04/06 01:47:09;;;;;;;2.90;2.40;;;;;;;3.85;63.79;101928.31;6120561;28;20230;-74
2023/04/06 01:50:31;;;;;;;3.00;2.70;;;;;;;3.84;63.81;101922.25;6132022;28;20234;-74
2023/04/06 01:53:52;;;;;;;2.80;2.60;;;;;;;3.80;64.36;101914.75;6122120;28;20538;-73
2023/04/06 01:57:18;;;;;;;2.93;2.73;;;;;;;3.79;64.83;101916.53;6128683;28;20495;-73
2023/04/06 02:00:44;;;;;;;4.23;3.17;;;;;;;3.84;64.66;101916.25;6123231;28;20234;-72
2023/04/06 02:04:05;;;;;;;4.83;4.17;;;;;;;3.86;65.75;101914.34;6118034;28;20243;-73
2023/04/06 02:07:27;;;;;;;3.93;2.60;;;;;;;3.86;65.49;101912.56;6123239;28;20234;-73
2023/04/06 02:10:49;;;;;;;3.93;3.13;;;;;;;3.90;65.50;101901.00;6130247;28;20239;-73
2023/04/06 02:14:21;;;;;;;5.53;3.73;;;;;;;3.90;65.73;101905.38;6125416;28;20238;-71
2023/04/06 02:17:47;;;;;;;3.60;3.27;;;;;;;3.91;64.85;101901.81;6116959;28;20234;-72
2023/04/06 02:21:08;;;;;;;3.63;3.33;;;;;;;3.88;65.79;101896.78;6119729;28;20230;-73
2023/04/06 02:24:29;;;;;;;5.40;3.73;;;;;;;3.85;66.32;101892.59;6130184;28;20234;-73
2023/04/06 02:27:50;;;;;;;5.57;3.27;;;;;;;3.85;66.72;101897.00;6140551;28;20604;-73
2023/04/06 02:31:14;;;;;;;3.83;3.23;;;;;;;3.84;66.80;101897.97;6129815;28;21336;-73
2023/04/06 02:34:36;;;;;;;4.77;3.47;;;;;;;3.79;66.29;101898.25;6128297;28;20356;-72
2023/04/06 02:37:57;;;;;;;4.80;4.23;;;;;;;3.75;66.98;101892.38;6140074;28;20511;-73
2023/04/06 02:41:18;;;;;;;3.40;2.93;;;;;;;3.77;66.11;101895.72;6132970;28;20934;-73
2023/04/06 02:44:40;;;;;;;3.87;3.13;;;;;;;3.74;66.98;101901.16;6122488;28;20238;-72
2023/04/06 02:48:04;;;;;;;5.00;2.80;;;;;;;3.70;66.40;101899.66;6148878;28;20267;-74
2023/04/06 02:51:26;;;;;;;3.67;3.37;;;;;;;3.41;68.96;101893.66;6129493;28;20257;-73
2023/04/06 02:54:52;;;;;;;3.40;3.10;;;;;;;3.16;69.93;101898.78;6132326;28;20602;-72
2023/04/06 02:58:18;;;;;;;4.23;3.50;;;;;;;3.37;69.32;101899.22;6145239;28;20617;-72
2023/04/06 03:01:44;;;;;;;5.37;2.87;;;;;;;3.31;70.05;101905.63;6145636;28;20432;-73
2023/04/06 03:05:07;;;;;;;3.83;2.63;;;;;;;3.36;69.51;101897.53;6123832;28;20520;-73
2023/04/06 03:08:32;;;;;;;2.93;2.60;;;;;;;3.47;70.32;101900.28;6122443;28;20253;-73
2023/04/06 03:11:53;;;;;;;4.50;3.10;;;;;;;3.51;69.73;101906.16;6130651;28;20435;-73
2023/04/06 03:15:15;;;;;;;3.37;3.07;;;;;;;3.36;69.55;101900.97;6122696;28;20250;-73
2023/04/06 03:18:41;;;;;;;2.70;2.50;;;;;;;3.09;71.54;101905.28;6125232;28;20230;-73
2023/04/06 03:22:03;;;;;;;5.87;3.47;;;;;;;3.02;73.16;101906.59;6138659;28;20489;-73
2023/04/06 03:25:24;;;;;;;4.30;3.90;;;;;;;2.96;74.33;101899.13;6117641;28;20247;-72
2023/04/06 03:28:46;;;;;;;3.93;2.30;;;;;;;2.96;73.89;101902.56;6118250;28;20712;-73
2023/04/06 03:32:09;;;;;;;5.77;3.30;;;;;;;2.84;74.53;101908.53;6125731;28;20238;-73
2023/04/06 03:35:33;;;;;;;3.87;3.33;;;;;;;2.70;75.19;101906.78;6136952;28;20344;-73
2023/04/06 03:38:55;;;;;;;5.67;4.13;;;;;;;2.87;74.66;101910.13;6121777;28;20235;-73
2023/04/06 03:42:16;;;;;;;4.07;2.93;;;;;;;3.08;73.92;101903.63;6132967;28;21582;-73
2023/04/06 03:45:44;;;;;;;3.90;3.60;;;;;;;3.01;73.77;101910.13;6125151;28;20238;-73
2023/04/06 03:49:07;;;;;;;4.13;3.53;;;;;;;3.03;74.04;101911.72;6117416;28;20234;-73
2023/04/06 03:52:28;;;;;;;6.47;4.67;;;;;;;2.90;74.68;101913.41;6134980;28;20227;-73
2023/04/06 03:55:50;;;;;;;14.53;10.33;;;;;;;2.84;73.97;101903.34;6138541;28;20514;-73
2023/04/06 03:59:11;;;;;;;11.97;9.10;;;;;;;2.98;73.57;101916.38;6135276;28;20534;-74
2023/04/06 04:02:33;;;;;;;12.77;10.60;;;;;;;3.03;73.19;101910.88;6124290;28;20230;-73
2023/04/06 04:05:54;;;;;;;16.70;13.70;;;;;;;3.09;73.10;101920.94;6125694;28;20238;-73
2023/04/06 04:09:15;;;;;;;13.60;10.57;;;;;;;3.04;72.77;101915.16;6136868;28;20616;-73
2023/04/06 04:12:38;;;;;;;12.50;11.40;;;;;;;3.01;73.17;101920.56;6140569;28;20227;-73
2023/04/06 04:15:59;;;;;;;5.37;4.63;;;;;;;3.05;73.44;101920.28;6130621;28;20343;-72
2023/04/06 04:19:21;;;;;;;5.10;3.07;;;;;;;3.01;73.28;101915.34;6124141;28;20230;-72
2023/04/06 04:22:41;;;;;;;9.57;6.67;;;;;;;3.02;73.49;101922.22;6146851;28;20230;-72
2023/04/06 04:26:03;;;;;;;4.17;3.63;;;;;;;3.02;72.36;101930.91;6112865;28;20242;-73
2023/04/06 04:29:26;;;;;;;5.80;3.37;;;;;;;2.92;73.17;101927.19;6124703;28;20250;-73
2023/04/06 04:32:48;;;;;;;5.33;3.67;;;;;;;2.97;73.84;101932.09;6137763;28;20762;-73
2023/04/06 04:36:13;;;;;;;3.67;3.40;;;;;;;2.93;72.50;101933.25;6124702;28;20231;-73
2023/04/06 04:39:37;;;;;;;3.57;3.33;;;;;;;2.81;73.21;101933.97;6118311;28;20242;-74
2023/04/06 04:43:01;;;;;;;5.97;3.40;;;;;;;2.84;73.60;101933.78;6142201;28;20234;-73
2023/04/06 04:46:30;;;;;;;3.57;3.30;;;;;;;2.86;73.37;101932.75;6134815;28;20246;-73
2023/04/06 04:49:50;;;;;;;5.30;3.67;;;;;;;2.91;73.15;101930.72;6121345;28;20325;-73
2023/04/06 04:53:16;;;;;;;4.73;3.60;;;;;;;2.92;73.17;101936.78;6134246;28;20238;-71
2023/04/06 04:56:39;;;;;;;4.10;3.10;;;;;;;2.93;73.52;101928.88;6131801;28;20230;-73
2023/04/06 05:00:16;;;;;;;4.23;2.87;;;;;;;2.95;72.86;101926.13;6094365;28;20230;-73
2023/04/06 05:03:40;;;;;;;5.20;4.07;;;;;;;2.89;73.35;101929.97;6115362;28;20258;-73
2023/04/06 05:07:06;;;;;;;3.40;2.90;;;;;;;2.97;73.10;101922.50;6116227;28;20270;-72
2023/04/06 05:10:28;;;;;;;9.63;4.03;;;;;;;3.04;71.66;101918.59;6115641;28;20322;-73
2023/04/06 05:13:53;;;;;;;5.23;3.70;;;;;;;2.96;72.37;101927.81;6128017;28;20247;-73
2023/04/06 05:17:18;;;;;;;3.70;3.40;;;;;;;3.01;72.34;101929.22;6132467;28;20234;-72
2023/04/06 05:20:40;;;;;;;4.13;2.63;;;;;;;2.93;72.42;101934.09;6135359;28;20227;-70
2023/04/06 05:24:02;;;;;;;6.87;4.30;;;;;;;3.05;72.12;101933.31;6125006;28;20238;-72
2023/04/06 05:27:25;;;;;;;6.33;3.77;;;;;;;3.15;72.27;101930.16;6143113;28;20683;-68
2023/04/06 05:30:47;;;;;;;3.20;2.90;;;;;;;3.25;71.08;101931.25;6107547;28;20238;-68
2023/04/06 05:34:10;;;;;;;4.37;3.97;;;;;;;3.25;70.76;101928.66;6122629;28;21091;-70
2023/04/06 05:37:34;;;;;;;4.03;3.73;;;;;;;3.19;70.69;101921.19;6125106;28;20234;-69
2023/04/06 05:40:55;;;;;;;5.20;3.40;;;;;;;3.23;70.89;101920.91;6119418;28;20313;-70
2023/04/06 05:44:20;;;;;;;3.63;3.03;;;;;;;3.39;70.70;101923.41;6125095;28;20223;-70
2023/04/06 05:47:47;;;;;;;4.40;3.97;;;;;;;3.42;70.07;101925.81;6114098;28;20243;-74
2023/04/06 05:51:17;;;;;;;3.17;2.93;;;;;;;3.99;73.04;101918.69;6095814;28;21400;-70
2023/04/06 05:54:45;;;;;;;7.83;6.77;;;;;;;4.18;71.20;101926.16;6113544;28;20242;-69
2023/04/06 05:58:06;;;;;;;9.20;4.83;;;;;;;4.18;67.74;101923.53;6140041;28;20254;-70
2023/04/06 06:01:27;;;;;;;6.07;4.00;;;;;;;4.03;67.68;101922.78;6126364;28;20592;-70
2023/04/06 06:04:48;;;;;;;6.93;3.47;;;;;;;3.97;67.43;101912.72;6121929;28;20679;-69
2023/04/06 06:08:11;;;;;;;5.17;3.70;;;;;;;4.02;66.83;101920.25;6128903;28;20306;-70
2023/04/06 06:11:34;;;;;;;7.07;4.13;;;;;;;4.13;66.20;101920.38;6144193;28;20294;-71
2023/04/06 06:14:57;;;;;;;3.57;3.10;;;;;;;4.13;65.67;101916.00;6114662;28;20239;-69
2023/04/06 06:18:21;;;;;;;5.20;3.40;;;;;;;4.13;64.15;101916.00;6124565;28;20673;-70
2023/04/06 06:21:45;;;;;;;6.73;3.90;;;;;;;4.11;63.85;101923.09;6123205;28;20246;-71
2023/04/06 06:25:06;;;;;;;4.13;3.73;;;;;;;4.00;63.23;101928.19;6118724;28;20253;-70
2023/04/06 06:28:28;;;;;;;3.97;3.30;;;;;;;3.95;63.63;101925.03;6129239;28;20234;-71
2023/04/06 06:31:51;;;;;;;4.43;3.40;;;;;;;4.01;63.29;101916.81;6131029;28;20260;-69
2023/04/06 06:35:12;;;;;;;4.07;3.40;;;;;;;4.02;61.84;101926.31;6112093;28;20558;-71
2023/04/06 06:38:34;;;;;;;5.10;4.57;;;;;;;4.14;61.65;101924.69;6138117;28;20818;-72
2023/04/06 06:41:55;;;;;;;5.27;4.03;;;;;;;4.17;60.70;101928.88;6143488;28;20233;-69
2023/04/06 06:45:36;;;;;;;5.27;4.70;;;;;;;4.21;60.54;101932.97;6137660;28;20279;-70
2023/04/06 06:48:59;;;;;;;4.27;3.50;;;;;;;4.46;60.01;101930.41;6129972;28;20270;-69
2023/04/06 06:52:21;;;;;;;8.97;4.17;;;;;;;4.69;59.21;101921.00;6135602;28;20264;-71
2023/04/06 06:55:43;;;;;;;5.33;4.83;;;;;;;4.75;58.76;101920.56;6129705;28;20242;-69
2023/04/06 06:59:05;;;;;;;6.23;4.37;;;;;;;4.74;56.15;101918.94;6129735;28;20644;-70
2023/04/06 07:02:27;;;;;;;3.67;3.37;;;;;;;4.78;55.92;101920.38;6135983;28;20223;-69
2023/04/06 07:05:52;;;;;;;7.97;5.50;;;;;;;4.76;55.59;101917.03;6124625;28;20230;-69
2023/04/06 07:09:14;;;;;;;7.17;3.57;;;;;;;4.75;55.00;101925.81;6129389;28;21778;-69
2023/04/06 07:12:35;;;;;;;4.17;3.57;;;;;;;4.80;55.52;101915.88;6145284;28;20238;-71
2023/04/06 07:15:56;;;;;;;3.90;3.30;;;;;;;5.03;54.54;101920.38;6129660;28;20265;-70
2023/04/06 07:19:18;;;;;;;4.00;3.30;;;;;;;5.09;54.14;101917.34;6135174;28;21731;-70
2023/04/06 07:22:40;;;;;;;4.60;3.67;;;;;;;5.28;53.73;101921.28;6122564;28;20250;-69
2023/04/06 07:26:00;;;;;;;4.33;4.03;;;;;;;5.46;53.05;101918.19;6138290;28;21347;-71
2023/04/06 07:29:22;;;;;;;4.20;3.87;;;;;;;5.55;52.93;101921.94;6125083;28;20223;-70
2023/04/06 07:32:43;;;;;;;4.47;4.07;;;;;;;5.57;52.65;101913.97;6140550;28;20439;-68
2023/04/06 07:36:06;;;;;;;8.53;4.30;;;;;;;5.76;52.46;101914.31;6146901;28;20257;-68
2023/04/06 07:39:27;;;;;;;4.43;3.73;;;;;;;6.00;51.89;101907.31;6132695;28;20243;-70
2023/04/06 07:42:50;;;;;;;6.03;2.83;;;;;;;6.10;50.86;101910.94;6150102;28;20230;-73
2023/04/06 07:46:11;;;;;;;4.50;3.27;;;;;;;6.30;49.70;101901.59;6134923;28;20227;-70
2023/04/06 07:49:32;;;;;;;5.97;2.97;;;;;;;6.38;48.78;101906.25;6138240;28;20242;-69
2023/04/06 07:52:55;;;;;;;4.70;3.57;;;;;;;6.58;47.72;101896.88;6143382;28;20547;-69
2023/04/06 07:56:17;;;;;;;4.30;3.40;;;;;;;6.74;47.52;101900.88;6105698;28;20234;-68
2023/04/06 07:59:38;;;;;;;5.40;3.67;;;;;;;6.82;46.59;101900.25;6133821;28;20343;-69
2023/04/06 08:03:00;;;;;;;7.47;4.97;;;;;;;6.74;46.11;101893.00;6146295;28;20321;-67
2023/04/06 08:06:21;;;;;;;4.40;3.53;;;;;;;6.67;46.45;101891.78;6119659;28;20597;-70
2023/04/06 08:09:43;;;;;;;6.63;3.30;;;;;;;7.09;46.65;101892.03;6117227;28;20227;-71
2023/04/06 08:13:04;;;;;;;3.73;3.43;;;;;;;7.11;44.52;101906.72;6129023;28;20795;-70
2023/04/06 08:16:25;;;;;;;6.90;3.93;;;;;;;7.26;44.38;101906.44;6146977;28;20250;-71
2023/04/06 08:19:46;;;;;;;5.83;4.27;;;;;;;7.51;44.84;101893.03;6125389;28;20238;-68
2023/04/06 08:23:09;;;;;;;4.33;3.93;;;;;;;7.58;43.89;101886.34;6146929;28;21504;-68
2023/04/06 08:26:31;;;;;;;3.80;2.93;;;;;;;7.64;42.50;101887.66;6153213;28;20234;-70
2023/04/06 08:29:52;;;;;;;3.93;3.03;;;;;;;7.72;42.23;101888.69;6119547;28;20318;-71
2023/04/06 08:33:13;;;;;;;4.07;3.77;;;;;;;7.59;41.36;101885.41;6152913;28;20235;-67
2023/04/06 08:36:34;;;;;;;5.80;3.40;;;;;;;7.45;40.27;101883.06;6154287;28;21128;-70
2023/04/06 08:39:55;;;;;;;4.03;3.60;;;;;;;7.68;40.98;101881.19;6122263;28;20617;-69
2023/04/06 08:43:21;;;;;;;5.30;2.93;;;;;;;8.14;43.37;101878.25;6150784;28;20238;-66
2023/04/06 08:46:42;;;;;;;4.03;3.67;;;;;;;8.34;41.14;101879.25;6145343;28;20234;-68
2023/04/06 08:50:05;;;;;;;2.87;2.67;;;;;;;8.33;40.34;101874.97;6120500;28;20722;-68
2023/04/06 08:53:26;;;;;;;4.20;3.77;;;;;;;8.33;42.04;101875.81;6138189;28;20325;-68
2023/04/06 08:56:49;;;;;;;3.43;3.13;;;;;;;8.43;38.89;101878.47;6138150;28;20234;-66
2023/04/06 09:00:13;;;;;;;3.53;3.23;;;;;;;8.38;41.41;101870.13;6126343;28;20235;-66
2023/04/06 09:03:37;;;;;;;4.33;3.63;;;;;;;8.74;38.86;101877.56;6140668;28;20727;-66
2023/04/06 09:06:59;;;;;;;3.17;2.60;;;;;;;8.78;38.08;101875.50;6134874;28;20580;-67
2023/04/06 09:10:20;;;;;;;3.73;3.17;;;;;;;8.83;36.97;101865.38;6141868;28;20523;-69
2023/04/06 09:13:48;;;;;;;3.50;2.67;;;;;;;8.80;36.64;101869.13;6147228;28;20234;-69
2023/04/06 09:17:21;;;;;;;6.60;3.00;;;;;;;8.83;34.64;101870.66;6142946;28;20317;-69
2023/04/06 09:20:42;;;;;;;2.80;2.40;;;;;;;8.96;34.87;101863.38;6127228;28;20243;-69
2023/04/06 09:24:04;;;;;;;2.60;2.40;;;;;;;8.95;34.16;101848.53;6142365;28;20515;-69
2023/04/06 09:27:31;;;;;;;4.67;2.80;;;;;;;8.78;34.03;101868.44;6125149;28;20227;-69
2023/04/06 09:30:53;;;;;;;3.70;3.07;;;;;;;8.84;35.11;101860.00;6133164;28;20231;-69
2023/04/06 09:34:23;;;;;;;3.50;2.33;;;;;;;8.99;35.66;101857.84;6147077;28;20226;-69
2023/04/06 09:37:45;;;;;;;2.13;2.00;;;;;;;8.80;35.67;101844.63;6132765;28;20750;-69
2023/04/06 09:41:06;;;;;;;2.27;2.00;;;;;;;9.06;36.41;101844.97;6137871;28;20234;-68
2023/04/06 09:44:27;;;;;;;2.37;2.17;;;;;;;9.34;36.76;101848.63;6134613;28;20223;-68
2023/04/06 09:47:49;;;;;;;3.10;2.77;;;;;;;9.62;36.57;101842.59;6149567;28;20238;-69
2023/04/06 09:51:17;;;;;;;3.80;2.83;;;;;;;9.46;33.95;101845.78;6128836;28;20231;-70
2023/04/06 09:54:39;;;;;;;2.20;1.93;;;;;;;9.56;34.51;101829.94;6129977;28;20239;-69
2023/04/06 09:58:05;;;;;;;3.47;2.73;;;;;;;9.58;32.42;101843.81;6144736;28;20300;-68
2023/04/06 10:01:30;;;;;;;3.07;2.87;;;;;;;9.73;32.25;101826.63;6147496;28;20608;-69
2023/04/06 10:04:57;;;;;;;4.77;2.33;;;;;;;9.87;31.79;101834.13;6132236;28;20231;-69
2023/04/06 10:08:21;;;;;;;2.03;1.83;;;;;;;10.07;31.62;101819.13;6152097;28;20532;-70
2023/04/06 10:11:43;;;;;;;1.87;1.67;;;;;;;10.23;30.50;101823.81;6154158;28;20275;-70
2023/04/06 10:15:04;;;;;;;2.40;2.20;;;;;;;10.30;30.61;101830.22;6130558;28;20607;-68
2023/04/06 10:18:26;;;;;;;2.23;1.73;;;;;;;10.60;30.13;101834.44;6146798;28;20546;-69
2023/04/06 10:21:51;;;;;;;2.97;2.77;;;;;;;10.65;30.25;101818.97;6151088;28;20238;-69
2023/04/06 10:25:13;;;;;;;2.63;2.30;;;;;;;10.90;29.98;101815.66;6123731;28;20743;-69
2023/04/06 10:28:36;;;;;;;3.50;1.90;;;;;;;10.86;29.94;101826.66;6143002;28;20325;-69
2023/04/06 10:31:57;;;;;;;3.30;3.00;;;;;;;11.17;30.03;101816.63;6146397;28;20234;-69
2023/04/06 10:35:18;;;;;;;2.43;2.23;;;;;;;11.26;30.33;101819.25;6126838;28;20235;-70
2023/04/06 10:38:40;;;;;;;2.50;2.30;;;;;;;11.59;30.14;101819.53;6130666;28;20262;-72
2023/04/06 10:42:08;;;;;;;4.20;3.17;;;;;;;11.64;31.67;101817.28;6121292;28;20604;-70
2023/04/06 10:45:32;;;;;;;5.47;3.50;;;;;;;12.06;31.62;101814.00;6119992;28;20230;-71
2023/04/06 10:48:55;;;;;;;3.87;3.03;;;;;;;12.01;31.49;101805.69;6121427;28;20239;-72
2023/04/06 10:52:16;;;;;;;4.03;2.70;;;;;;;11.76;30.29;101804.66;6131746;28;20227;-71
2023/04/06 10:55:40;;;;;;;2.87;1.97;;;;;;;12.54;33.59;101794.97;6124290;28;20661;-71
2023/04/06 10:59:03;;;;;;;3.30;2.70;;;;;;;12.46;28.08;101808.16;6122053;28;20810;-70
2023/04/06 11:02:24;;;;;;;5.57;2.80;;;;;;;12.60;31.15;101789.03;6141113;28;20230;-70
2023/04/06 11:05:46;;;;;;;4.90;3.20;;;;;;;12.41;28.25;101789.28;6138204;28;20262;-73
2023/04/06 11:09:07;;;;;;;3.63;3.33;;;;;;;12.47;28.23;101802.69;6116350;28;20849;-73
2023/04/06 11:12:30;;;;;;;4.03;3.10;;;;;;;12.33;27.73;101792.69;6141652;28;20305;-70
2023/04/06 11:15:52;;;;;;;8.57;3.80;;;;;;;12.88;27.54;101789.63;6142166;28;20231;-71
2023/04/06 11:19:13;;;;;;;3.77;3.30;;;;;;;14.63;24.86;101781.25;6128872;28;20669;-72
2023/04/06 11:22:35;;;;;;;3.83;3.53;;;;;;;17.97;21.38;101768.72;6144617;28;20231;-72
2023/04/06 11:25:56;;;;;;;5.33;3.33;;;;;;;21.15;18.37;101758.91;6139147;28;20266;-73
2023/04/06 11:29:18;;;;;;;4.20;3.47;;;;;;;22.84;16.64;101753.19;6132756;28;20573;-69
2023/04/06 11:32:43;;;;;;;3.17;2.90;;;;;;;21.40;16.03;101756.28;6149656;28;20854;-71
2023/04/06 11:36:04;;;;;;;3.72;3.22;;;;;;;21.47;15.64;101775.84;6125466;28;20259;-70
2023/04/06 11:39:27;;;;;;;4.10;3.40;;;;;;;24.04;15.49;101760.28;6138435;28;20227;-73
2023/04/06 11:42:53;;;;;;;5.60;3.95;;;;;;;22.81;14.21;101764.44;6135520;28;20539;-70
2023/04/06 11:46:19;;;;;;;4.10;2.85;;;;;;;22.75;14.82;101759.94;6130733;28;20230;-71
2023/04/06 11:49:44;;;;;;;3.83;3.53;;;;;;;24.04;13.70;101754.88;6124707;28;20498;-72
2023/04/06 11:53:05;;;;;;;3.63;3.33;;;;;;;23.26;13.09;101753.25;6149950;28;20230;-74
2023/04/06 11:56:28;;;;;;;5.07;4.57;;;;;;;24.62;13.55;101740.50;6097323;28;20321;-70
2023/04/06 11:59:49;;;;;;;3.28;3.00;;;;;;;27.00;11.22;101735.22;6132994;28;20223;-68
2023/04/06 12:03:10;;;;;;;5.40;2.83;;;;;;;27.11;11.73;101734.25;6156852;28;20234;-71
2023/04/06 12:06:33;;;;;;;7.43;4.60;;;;;;;25.02;11.12;101735.88;6138510;28;20242;-72
2023/04/06 12:09:54;;;;;;;3.53;3.25;;;;;;;23.62;14.08;101743.38;6119336;28;20867;-71
2023/04/06 12:13:15;;;;;;;7.97;3.83;;;;;;;23.29;13.23;101741.16;6151266;28;20234;-70
2023/04/06 12:16:36;;;;;;;6.50;3.45;;;;;;;23.24;13.20;101738.38;6152693;28;20231;-68
2023/04/06 12:19:57;;;;;;;3.38;2.80;;;;;;;25.91;10.60;101727.91;6130233;28;20238;-68
2023/04/06 12:23:20;;;;;;;4.05;2.70;;;;;;;22.48;13.87;101721.75;6151124;28;20540;-68
2023/04/06 12:26:41;;;;;;;3.22;2.92;;;;;;;22.55;13.44;101750.47;6146963;28;20235;-69
2023/04/06 12:30:03;;;;;;;5.22;3.60;;;;;;;24.30;12.23;101735.53;6145025;28;20571;-69
2023/04/06 12:33:24;;;;;;;4.03;3.55;;;;;;;24.32;12.07;101735.28;6147243;28;20604;-69
2023/04/06 12:36:45;;;;;;;5.20;4.70;;;;;;;23.96;12.46;101733.63;6151427;28;20605;-69
2023/04/06 12:40:10;;;;;;;4.07;3.67;;;;;;;23.45;13.38;101725.19;6126362;28;20353;-71
2023/04/06 12:43:31;;;;;;;4.30;2.80;;;;;;;26.26;12.14;101718.59;6134932;28;20239;-70
2023/04/06 12:46:52;;;;;;;5.75;3.72;;;;;;;21.01;15.09;101727.00;6139687;28;20242;-69
2023/04/06 12:50:13;;;;;;;5.43;3.58;;;;;;;21.62;14.86;101721.81;6136842;28;20313;-68
2023/04/06 12:53:35;;;;;;;4.35;3.53;;;;;;;23.46;13.56;101707.13;6134195;28;20230;-70
2023/04/06 12:56:58;;;;;;;4.70;3.72;;;;;;;25.73;12.19;101701.94;6134405;28;20303;-70
2023/04/06 13:00:20;;;;;;;6.78;3.65;;;;;;;25.24;12.60;101708.97;6129499;28;20281;-66
2023/04/06 13:03:42;;;;;;;5.65;3.42;;;;;;;24.82;12.54;101700.38;6128098;28;20227;-69
2023/04/06 13:07:03;;;;;;;5.25;3.55;;;;;;;23.02;12.88;101713.84;6123547;28;20724;-70
2023/04/06 13:10:24;;;;;;;5.43;4.35;;;;;;;23.91;13.17;101707.41;6132910;28;20281;-69
2023/04/06 13:13:46;;;;;;;5.07;4.00;;;;;;;23.77;12.62;101698.72;6143222;28;20233;-71
2023/04/06 13:17:07;;;;;;;3.53;3.25;;;;;;;25.17;12.06;101695.63;6143008;28;20254;-71
2023/04/06 13:20:28;;;;;;;7.65;4.60;;;;;;;24.15;12.87;101692.00;6136085;28;20242;-68
2023/04/06 13:23:49;;;;;;;4.38;3.75;;;;;;;22.43;13.75;101697.41;6133201;28;20325;-67
2023/04/06 13:27:11;;;;;;;4.43;3.40;;;;;;;23.27;13.34;101692.13;6154143;28;20234;-68
2023/04/06 13:30:34;;;;;;;4.30;3.72;;;;;;;22.72;13.68;101692.28;6141500;28;20228;-70
2023/04/06 13:33:55;;;;;;;3.63;3.33;;;;;;;24.98;13.08;101679.88;6138246;28;20258;-68
2023/04/06 13:37:16;;;;;;;5.60;4.03;;;;;;;25.02;12.56;101683.75;6150851;28;20277;-68
2023/04/06 13:40:39;;;;;;;4.93;4.50;;;;;;;23.13;13.41;101684.22;6123115;28;20243;-69
2023/04/06 13:44:00;;;;;;;3.75;3.42;;;;;;;25.09;12.69;101670.88;6127264;28;20231;-68
2023/04/06 13:47:22;;;;;;;6.00;4.20;;;;;;;23.84;13.01;101669.75;6147281;28;20555;-69
2023/04/06 13:50:43;;;;;;;5.03;3.70;;;;;;;24.78;12.47;101662.22;6139962;28;20246;-69
2023/04/06 13:54:05;;;;;;;5.53;3.58;;;;;;;25.12;12.77;101662.28;6135057;28;20231;-67
2023/04/06 13:57:25;;;;;;;4.60;4.15;;;;;;;20.22;16.02;101679.84;6139400;28;20578;-68
2023/04/06 14:00:47;;;;;;;6.25;5.00;;;;;;;22.07;15.76;101657.09;6130124;28;20358;-69
2023/04/06 14:04:09;;;;;;;5.80;4.15;;;;;;;24.08;13.70;101653.53;6124644;28;20258;-72
2023/04/06 14:07:30;;;;;;;4.68;4.25;;;;;;;23.76;13.97;101653.13;6144086;28;20613;-69
2023/04/06 14:10:53;;;;;;;7.22;4.10;;;;;;;21.02;15.72;101667.69;6131240;28;20226;-70
2023/04/06 14:14:15;;;;;;;4.30;4.00;;;;;;;21.66;16.22;101661.22;6143467;28;20302;-69
2023/04/06 14:17:35;;;;;;;5.85;3.50;;;;;;;21.47;16.01;101660.34;6154192;28;20230;-69
2023/04/06 14:20:58;;;;;;;4.25;3.90;;;;;;;20.97;17.11;101659.50;6142367;28;20234;-69
2023/04/06 14:24:21;;;;;;;4.65;4.25;;;;;;;19.78;18.14;101659.97;6134512;28;20270;-70
2023/04/06 14:27:42;;;;;;;8.15;6.38;;;;;;;19.55;18.58;101651.56;6133128;28;20246;-71
2023/04/06 14:31:14;;;;;;;5.18;4.75;;;;;;;19.78;18.15;101643.09;6136482;28;20541;-71
2023/04/06 14:34:38;;;;;;;5.93;5.03;;;;;;;17.83;19.88;101649.44;6141704;28;20238;-69
2023/04/06 14:38:01;;;;;;;6.03;4.82;;;;;;;16.81;20.95;101662.31;6141138;28;20230;-68
2023/04/06 14:41:24;;;;;;;3.97;3.67;;;;;;;17.35;21.44;101658.13;6128137;28;20663;-72
2023/04/06 14:44:46;;;;;;;4.90;4.50;;;;;;;18.58;20.58;101648.53;6137634;28;20842;-71
2023/04/06 14:48:07;;;;;;;5.70;5.15;;;;;;;18.09;20.46;101649.56;6151925;28;20222;-71
2023/04/06 14:51:28;;;;;;;5.37;4.50;;;;;;;18.30;20.74;101648.66;6114376;28;20235;-77
2023/04/06 14:54:50;;;;;;;4.30;3.95;;;;;;;18.04;20.04;101633.31;6120570;28;20269;-77
2023/04/06 14:58:13;;;;;;;5.53;4.90;;;;;;;18.66;20.73;101635.00;6149141;28;20230;-71
2023/04/06 15:01:35;;;;;;;5.07;4.40;;;;;;;17.59;20.36;101638.19;6139057;28;20279;-73
2023/04/06 15:04:56;;;;;;;5.07;4.03;;;;;;;17.60;21.16;101645.16;6140751;28;20309;-69
2023/04/06 15:08:20;;;;;;;4.70;4.30;;;;;;;16.33;21.95;101643.28;6126158;28;20322;-70
2023/04/06 15:11:42;;;;;;;4.23;3.53;;;;;;;16.30;22.37;101651.66;6141274;28;20238;-69
2023/04/06 15:15:03;;;;;;;7.63;4.97;;;;;;;16.48;21.75;101641.44;6131204;28;20227;-69
2023/04/06 15:18:24;;;;;;;4.97;4.30;;;;;;;16.92;21.49;101643.97;6145749;28;20258;-69
2023/04/06 15:21:45;;;;;;;5.27;4.17;;;;;;;15.67;22.45;101637.06;6121231;28;20231;-68
2023/04/06 15:25:07;;;;;;;4.43;4.03;;;;;;;16.42;23.19;101644.84;6036262;28;20251;-69
2023/04/06 15:28:30;;;;;;;5.63;3.40;;;;;;;16.75;21.86;101643.38;6134947;28;20247;-71
2023/04/06 15:31:51;;;;;;;6.30;3.80;;;;;;;16.61;22.71;101646.91;6133557;28;20242;-69
2023/04/06 15:35:12;;;;;;;7.40;5.97;;;;;;;17.34;22.05;101644.97;6113113;28;20357;-71
2023/04/06 15:38:33;;;;;;;5.27;4.77;;;;;;;17.27;21.96;101638.75;6140321;28;20227;-69
2023/04/06 15:41:55;;;;;;;6.23;5.63;;;;;;;17.49;21.47;101637.69;6134059;28;20613;-71
2023/04/06 15:45:18;;;;;;;7.87;4.00;;;;;;;16.52;21.91;101633.88;6139518;28;20226;-70
2023/04/06 15:48:39;;;;;;;4.93;4.43;;;;;;;16.01;22.79;101634.72;6135031;28;20258;-70